createdAt,value
2019-02-21T00:02:02.382Z,10.55
2019-02-21T00:04:30.624Z,9.63
2019-02-21T00:06:58.847Z,10.38
2019-02-21T00:09:27.085Z,10.70
2019-02-21T00:11:55.302Z,10.05
2019-02-21T00:14:23.556Z,10.43
2019-02-21T00:16:51.782Z,10.75
2019-02-21T00:19:20.018Z,9.93
2019-02-21T00:21:48.597Z,10.30
2019-02-21T00:24:17.112Z,10.38
2019-02-21T00:26:45.337Z,10.25
2019-02-21T00:29:13.580Z,10.00
2019-02-21T00:31:41.814Z,9.90
2019-02-21T00:34:10.054Z,9.80
2019-02-21T00:36:38.276Z,10.00
2019-02-21T00:39:06.757Z,10.53
2019-02-21T00:41:35.157Z,10.40
2019-02-21T00:44:03.377Z,10.20
2019-02-21T00:46:31.973Z,10.35
2019-02-21T00:49:00.503Z,10.80
2019-02-21T00:51:28.729Z,10.05
2019-02-21T00:53:56.964Z,10.58
2019-02-21T00:56:25.204Z,10.58
2019-02-21T00:58:53.676Z,10.32
2019-02-21T01:01:21.892Z,10.13
2019-02-21T01:03:50.128Z,9.53
2019-02-21T01:06:18.344Z,9.33
2019-02-21T01:08:48.044Z,10.50
2019-02-21T01:11:16.270Z,10.30
2019-02-21T01:13:44.502Z,10.53
2019-02-21T01:16:12.727Z,10.05
2019-02-21T01:18:41.111Z,10.23
2019-02-21T01:21:09.380Z,11.18
2019-02-21T01:23:37.641Z,10.05
2019-02-21T01:26:05.898Z,9.90
2019-02-21T01:28:34.111Z,10.38
2019-02-21T01:31:02.644Z,10.60
2019-02-21T01:33:30.851Z,9.80
2019-02-21T01:35:59.164Z,9.78
2019-02-21T01:38:27.363Z,10.50
2019-02-21T01:40:55.595Z,10.15
2019-02-21T01:43:23.824Z,10.13
2019-02-21T01:45:52.055Z,10.40
2019-02-21T01:48:20.556Z,10.28
2019-02-21T01:50:48.803Z,10.50
2019-02-21T01:53:17.023Z,10.88
2019-02-21T01:55:45.251Z,10.50
2019-02-21T01:58:13.476Z,10.20
2019-02-21T02:00:41.723Z,10.85
2019-02-21T02:03:09.945Z,9.90
2019-02-21T02:05:38.182Z,10.82
2019-02-21T02:08:06.484Z,10.65
2019-02-21T02:10:34.720Z,10.13
2019-02-21T02:13:03.243Z,10.78
2019-02-21T02:15:31.471Z,9.98
2019-02-21T02:17:59.997Z,10.70
2019-02-21T02:20:28.247Z,10.98
2019-02-21T02:22:56.480Z,10.90
2019-02-21T02:25:24.716Z,10.78
2019-02-21T02:27:52.943Z,10.53
2019-02-21T02:30:21.193Z,10.78
2019-02-21T02:32:49.671Z,9.85
2019-02-21T02:35:17.899Z,10.23
2019-02-21T02:37:46.124Z,10.70
2019-02-21T02:40:14.634Z,10.48
2019-02-21T02:42:42.856Z,11.05
2019-02-21T02:45:11.084Z,11.18
2019-02-21T02:47:39.602Z,10.70
2019-02-21T02:50:08.208Z,10.28
2019-02-21T02:52:36.428Z,11.40
2019-02-21T02:55:05.333Z,10.38
2019-02-21T02:57:33.561Z,10.90
2019-02-21T03:00:01.800Z,10.38
2019-02-21T03:02:30.021Z,11.63
2019-02-21T03:04:58.263Z,10.28
2019-02-21T03:07:26.484Z,10.53
2019-02-21T03:09:54.730Z,10.82
2019-02-21T03:12:22.931Z,11.53
2019-02-21T03:14:51.207Z,11.55
2019-02-21T03:17:19.784Z,10.32
2019-02-21T03:19:48.009Z,10.05
2019-02-21T03:22:16.241Z,10.88
2019-02-21T03:24:44.469Z,11.73
2019-02-21T03:27:12.839Z,10.65
2019-02-21T03:29:41.447Z,10.58
2019-02-21T03:32:09.681Z,11.00
2019-02-21T03:34:38.259Z,10.63
2019-02-21T03:37:06.502Z,10.72
2019-02-21T03:39:34.710Z,9.90
2019-02-21T03:42:02.968Z,10.20
2019-02-21T03:44:31.241Z,10.78
2019-02-21T03:46:59.483Z,10.58
2019-02-21T03:49:27.697Z,10.10
2019-02-21T03:51:55.949Z,10.90
2019-02-21T03:54:24.148Z,9.93
2019-02-21T03:56:52.384Z,10.85
2019-02-21T03:59:20.925Z,10.05
2019-02-21T04:01:49.435Z,10.65
2019-02-21T04:04:17.655Z,10.68
2019-02-21T04:06:45.888Z,10.20
2019-02-21T04:09:14.119Z,10.93
2019-02-21T04:11:42.355Z,10.23
2019-02-21T04:14:10.961Z,9.68
2019-02-21T04:16:39.270Z,10.70
2019-02-21T04:19:07.486Z,11.10
2019-02-21T04:21:35.718Z,10.80
2019-02-21T04:24:03.938Z,10.93
2019-02-21T04:26:32.189Z,10.60
2019-02-21T04:29:00.393Z,11.63
2019-02-21T04:31:28.624Z,10.48
2019-02-21T04:33:56.852Z,11.15
2019-02-21T04:36:25.360Z,11.25
2019-02-21T04:38:53.584Z,10.88
2019-02-21T04:41:21.834Z,11.25
2019-02-21T04:43:50.072Z,10.55
2019-02-21T04:46:18.624Z,10.58
2019-02-21T04:48:46.837Z,11.38
2019-02-21T04:51:15.072Z,11.63
2019-02-21T04:53:43.291Z,11.83
2019-02-21T04:56:11.531Z,12.18
2019-02-21T04:58:39.747Z,11.25
2019-02-21T05:01:07.981Z,11.68
2019-02-21T05:03:36.214Z,11.50
2019-02-21T05:06:04.429Z,11.85
2019-02-21T05:08:32.655Z,11.90
2019-02-21T05:11:00.884Z,11.65
2019-02-21T05:13:29.134Z,11.80
2019-02-21T05:15:57.349Z,10.90
2019-02-21T05:18:25.576Z,11.97
2019-02-21T05:20:53.793Z,11.35
2019-02-21T05:23:22.031Z,11.25
2019-02-21T05:25:50.250Z,10.98
2019-02-21T05:28:22.853Z,10.95
2019-02-21T05:30:52.716Z,10.65
2019-02-21T05:33:38.237Z,11.18
2019-02-21T05:36:08.385Z,10.75
2019-02-21T05:38:47.349Z,11.45
2019-02-21T05:41:17.236Z,11.05
2019-02-21T05:43:47.119Z,12.00
2019-02-21T05:46:35.627Z,10.80
2019-02-21T05:49:05.496Z,11.33
2019-02-21T05:54:35.849Z,11.55
2019-02-21T05:57:08.677Z,11.80
2019-02-21T05:59:41.515Z,12.25
2019-02-21T06:02:14.107Z,11.40
2019-02-21T06:05:00.417Z,11.38
2019-02-21T06:07:46.465Z,11.25
2019-02-21T06:10:25.315Z,10.98
2019-02-21T06:13:04.404Z,11.50
2019-02-21T06:15:40.173Z,11.38
2019-02-21T06:18:10.116Z,10.93
2019-02-21T06:20:39.984Z,11.78
2019-02-21T06:23:10.318Z,10.80
2019-02-21T06:25:51.032Z,11.95
2019-02-21T06:28:17.981Z,11.48
2019-02-21T06:30:50.500Z,16.32
2019-02-21T06:33:18.733Z,15.50
2019-02-21T06:35:47.028Z,13.98
2019-02-21T06:38:15.309Z,14.25
2019-02-21T06:40:43.882Z,12.63
2019-02-21T06:43:12.345Z,12.58
2019-02-21T06:45:40.853Z,12.53
2019-02-21T06:48:09.072Z,12.50
2019-02-21T06:50:37.349Z,12.47
2019-02-21T06:53:05.580Z,13.00
2019-02-21T06:55:33.800Z,12.50
2019-02-21T06:58:02.062Z,12.25
2019-02-21T07:00:30.295Z,12.23
2019-02-21T07:02:58.598Z,13.05
2019-02-21T07:05:26.809Z,12.95
2019-02-21T07:07:55.342Z,12.00
2019-02-21T07:10:23.560Z,12.80
2019-02-21T07:12:51.803Z,11.80
2019-02-21T07:15:20.021Z,12.65
2019-02-21T07:17:49.505Z,32.38
2019-02-21T07:20:18.052Z,34.85
2019-02-21T07:22:46.276Z,14.53
2019-02-21T07:25:32.491Z,12.58
2019-02-21T07:28:11.360Z,10.10
2019-02-21T07:30:30.865Z,12.35
2019-02-21T07:32:59.080Z,12.20
2019-02-21T07:35:27.327Z,12.20
2019-02-21T07:37:55.546Z,11.63
2019-02-21T07:40:23.787Z,11.00
2019-02-21T07:42:52.284Z,11.55
2019-02-21T07:45:20.588Z,11.90
2019-02-21T07:47:48.807Z,11.08
2019-02-21T07:50:17.046Z,11.57
2019-02-21T07:52:45.294Z,11.15
2019-02-21T07:55:13.576Z,12.13
2019-02-21T07:57:41.819Z,11.57
2019-02-21T08:00:12.155Z,11.80
2019-02-21T08:02:40.381Z,11.63
2019-02-21T08:05:08.894Z,12.63
2019-02-21T08:07:37.134Z,13.48
2019-02-21T08:10:08.284Z,12.70
2019-02-21T08:12:36.504Z,11.97
2019-02-21T08:15:06.776Z,12.45
2019-02-21T08:17:35.032Z,13.38
2019-02-21T08:20:08.548Z,12.15
2019-02-21T08:22:33.274Z,13.28
2019-02-21T08:25:01.528Z,12.37
2019-02-21T08:27:29.800Z,12.55
2019-02-21T08:29:58.032Z,13.25
2019-02-21T08:32:27.896Z,12.58
2019-02-21T08:34:56.128Z,12.28
2019-02-21T08:37:24.352Z,12.68
2019-02-21T08:39:52.594Z,12.75
2019-02-21T08:42:20.818Z,12.55
2019-02-21T08:44:49.047Z,12.20
2019-02-21T08:47:17.276Z,12.23
2019-02-21T08:49:45.595Z,12.28
2019-02-21T08:52:14.117Z,13.88
2019-02-21T08:54:42.344Z,12.78
2019-02-21T08:57:10.564Z,12.53
2019-02-21T08:59:38.797Z,11.65
2019-02-21T09:02:07.027Z,12.63
2019-02-21T09:04:35.267Z,12.78
2019-02-21T09:07:03.485Z,12.43
2019-02-21T09:09:33.421Z,12.23
2019-02-21T09:12:02.006Z,12.23
2019-02-21T09:14:30.260Z,12.28
2019-02-21T09:16:58.757Z,12.75
2019-02-21T09:19:26.996Z,11.20
2019-02-21T09:21:55.233Z,11.48
2019-02-21T09:24:37.743Z,11.38
2019-02-21T09:26:53.423Z,12.18
2019-02-21T09:29:21.751Z,12.43
2019-02-21T09:31:49.982Z,12.13
2019-02-21T09:34:21.144Z,11.95
2019-02-21T09:36:48.205Z,13.25
2019-02-21T09:39:16.516Z,13.08
2019-02-21T09:41:44.754Z,12.65
2019-02-21T09:44:13.008Z,12.37
2019-02-21T09:46:41.244Z,12.70
2019-02-21T09:49:09.477Z,12.25
2019-02-21T09:51:38.601Z,12.73
2019-02-21T09:54:06.829Z,12.88
2019-02-21T09:56:35.068Z,12.05
2019-02-21T09:59:03.287Z,12.23
2019-02-21T10:01:31.528Z,12.10
2019-02-21T10:04:00.121Z,12.20
2019-02-21T10:06:28.389Z,12.20
2019-02-21T10:08:56.612Z,11.20
2019-02-21T10:11:24.885Z,11.60
2019-02-21T10:13:53.113Z,11.55
2019-02-21T10:16:21.364Z,11.25
2019-02-21T10:18:49.862Z,10.85
2019-02-21T10:21:18.135Z,12.18
2019-02-21T10:23:46.356Z,11.70
2019-02-21T10:26:14.601Z,12.30
2019-02-21T10:28:45.059Z,12.18
2019-02-21T10:31:13.112Z,11.97
2019-02-21T10:33:46.842Z,11.25
2019-02-21T10:36:11.600Z,12.13
2019-02-21T10:38:39.841Z,10.48
2019-02-21T10:41:08.949Z,10.80
2019-02-21T10:43:37.310Z,10.50
2019-02-21T10:46:05.530Z,9.58
2019-02-21T10:48:33.761Z,10.23
2019-02-21T10:51:01.996Z,11.18
2019-02-21T10:53:30.224Z,10.85
2019-02-21T10:55:58.463Z,11.10
2019-02-21T10:58:26.996Z,11.45
2019-02-21T11:00:55.224Z,12.50
2019-02-21T11:03:23.454Z,10.78
2019-02-21T11:05:51.672Z,10.28
2019-02-21T11:08:19.908Z,9.50
2019-02-21T11:10:48.152Z,9.63
2019-02-21T11:13:16.384Z,10.23
2019-02-21T11:15:44.612Z,9.65
2019-02-21T11:18:12.856Z,10.00
2019-02-21T11:20:41.079Z,9.60
2019-02-21T11:23:09.340Z,10.13
2019-02-21T11:25:37.578Z,10.48
2019-02-21T11:28:05.812Z,9.68
2019-02-21T11:30:34.134Z,9.80
2019-02-21T11:33:02.377Z,10.90
2019-02-21T11:35:30.666Z,10.58
2019-02-21T11:37:59.156Z,9.95
2019-02-21T11:40:27.383Z,10.82
2019-02-21T11:42:55.621Z,10.23
2019-02-21T11:45:23.856Z,9.78
2019-02-21T11:47:52.106Z,9.55
2019-02-21T11:50:20.750Z,9.33
2019-02-21T11:52:49.255Z,8.60
2019-02-21T11:55:20.384Z,9.75
2019-02-21T12:00:27.727Z,8.70
2019-02-21T12:02:56.040Z,9.65
2019-02-21T12:05:32.106Z,9.73
2019-02-21T12:07:54.244Z,9.55
2019-02-21T12:10:22.553Z,10.50
2019-02-21T12:12:50.781Z,9.60
2019-02-21T12:15:19.003Z,8.90
2019-02-21T12:17:47.245Z,9.43
2019-02-21T12:20:16.804Z,9.85
2019-02-21T12:22:45.033Z,9.23
2019-02-21T12:25:24.032Z,9.88
2019-02-21T12:27:52.260Z,9.18
2019-02-21T12:30:20.848Z,8.68
2019-02-21T12:32:49.080Z,9.80
2019-02-21T12:35:28.824Z,9.03
2019-02-21T12:37:47.256Z,8.28
2019-02-21T12:40:18.087Z,8.68
2019-02-21T12:42:46.381Z,8.18
2019-02-21T12:45:16.936Z,8.60
2019-02-21T12:47:50.696Z,8.90
2019-02-21T12:50:15.122Z,9.43
2019-02-21T12:52:43.356Z,9.35
2019-02-21T12:55:11.743Z,9.10
2019-02-21T12:57:39.976Z,9.25
2019-02-21T13:00:13.041Z,8.13
2019-02-21T13:02:41.450Z,8.83
2019-02-21T13:05:09.672Z,7.95
2019-02-21T13:07:37.913Z,9.13
2019-02-21T13:10:09.276Z,8.10
2019-02-21T13:12:37.508Z,8.25
2019-02-21T13:15:08.512Z,7.65
2019-02-21T13:20:07.084Z,7.95
2019-02-21T13:22:35.584Z,8.18
2019-02-21T13:25:04.547Z,7.60
2019-02-21T13:27:32.793Z,7.65
2019-02-21T13:30:01.015Z,7.37
2019-02-21T13:32:29.241Z,8.13
2019-02-21T13:34:57.465Z,7.28
2019-02-21T13:37:28.714Z,7.40
2019-02-21T13:39:55.676Z,7.67
2019-02-21T13:42:23.933Z,6.85
2019-02-21T13:44:52.140Z,7.33
2019-02-21T13:47:20.373Z,6.70
2019-02-21T13:49:48.791Z,6.05
2019-02-21T13:52:17.181Z,6.10
2019-02-21T13:54:45.408Z,6.22
2019-02-21T13:57:13.624Z,6.45
2019-02-21T13:59:41.860Z,5.80
2019-02-21T14:02:10.085Z,5.87
2019-02-21T14:04:38.317Z,6.17
2019-02-21T14:07:06.549Z,5.50
2019-02-21T14:09:34.781Z,5.45
2019-02-21T14:12:03.048Z,4.65
2019-02-21T14:14:31.301Z,5.30
2019-02-21T14:16:59.533Z,4.58
2019-02-21T14:19:27.759Z,4.95
2019-02-21T14:21:55.982Z,4.17
2019-02-21T14:24:35.974Z,4.60
2019-02-21T14:26:54.161Z,5.05
2019-02-21T14:29:22.424Z,6.33
2019-02-21T14:31:50.641Z,4.20
2019-02-21T14:34:18.872Z,4.45
2019-02-21T14:36:47.137Z,4.08
2019-02-21T14:39:15.741Z,3.60
2019-02-21T14:41:44.070Z,3.85
2019-02-21T14:44:12.809Z,3.50
2019-02-21T14:46:41.030Z,3.87
2019-02-21T14:49:09.336Z,3.80
2019-02-21T14:51:37.584Z,3.95
2019-02-21T14:54:05.816Z,3.65
2019-02-21T14:56:34.041Z,3.30
2019-02-21T14:59:02.284Z,2.85
2019-02-21T15:01:30.545Z,3.33
2019-02-21T15:03:59.120Z,3.60
2019-02-21T15:06:27.697Z,3.42
2019-02-21T15:08:56.056Z,3.50
2019-02-21T15:11:24.284Z,3.95
2019-02-21T15:13:52.545Z,3.65
2019-02-21T15:16:20.764Z,4.10
2019-02-21T15:18:49.006Z,3.75
2019-02-21T15:21:17.235Z,4.12
2019-02-21T15:23:45.464Z,4.17
2019-02-21T15:26:13.693Z,5.03
2019-02-21T15:28:42.231Z,4.58
2019-02-21T15:31:10.440Z,5.17
2019-02-21T15:33:38.686Z,4.75
2019-02-21T15:36:06.908Z,4.25
2019-02-21T15:38:35.154Z,5.25
2019-02-21T15:41:03.369Z,5.25
2019-02-21T15:43:31.665Z,4.85
2019-02-21T15:45:59.885Z,4.95
2019-02-21T15:48:28.139Z,4.85
2019-02-21T15:50:56.379Z,5.08
2019-02-21T15:53:24.596Z,5.15
2019-02-21T15:55:52.848Z,4.83
2019-02-21T15:58:21.068Z,4.53
2019-02-21T16:00:49.320Z,4.60
2019-02-21T16:03:17.549Z,4.08
2019-02-21T16:05:45.796Z,3.77
2019-02-21T16:08:14.016Z,4.87
2019-02-21T16:10:42.263Z,4.53
2019-02-21T16:13:10.937Z,4.83
2019-02-21T16:15:39.808Z,4.42
2019-02-21T16:18:08.032Z,4.35
2019-02-21T16:20:37.204Z,4.50
2019-02-21T16:23:05.423Z,4.37
2019-02-21T16:25:34.412Z,4.80
2019-02-21T16:28:02.632Z,4.20
2019-02-21T16:30:30.863Z,4.20
2019-02-21T16:32:59.084Z,3.67
2019-02-21T16:35:27.561Z,3.60
2019-02-21T16:37:55.834Z,3.55
2019-02-21T16:40:24.068Z,3.72
2019-02-21T16:42:52.298Z,3.55
2019-02-21T16:45:21.898Z,3.65
2019-02-21T16:47:50.435Z,3.85
2019-02-21T16:50:29.333Z,3.60
2019-02-21T16:52:48.960Z,3.72
2019-02-21T16:55:22.434Z,3.65
2019-02-21T16:57:50.659Z,3.75
2019-02-21T17:00:20.045Z,4.00
2019-02-21T17:02:48.264Z,3.40
2019-02-21T17:05:16.511Z,3.52
2019-02-21T17:07:44.805Z,4.45
2019-02-21T17:10:16.383Z,4.30
2019-02-21T17:12:44.609Z,4.60
2019-02-21T17:15:14.180Z,4.58
2019-02-21T17:17:42.408Z,4.03
2019-02-21T17:20:15.280Z,4.47
2019-02-21T17:22:43.499Z,4.33
2019-02-21T17:25:13.973Z,3.85
2019-02-21T17:27:42.766Z,4.15
2019-02-21T17:30:13.948Z,4.55
2019-02-21T17:32:42.476Z,4.50
2019-02-21T17:35:10.724Z,4.62
2019-02-21T17:37:38.940Z,4.58
2019-02-21T17:40:13.389Z,4.30
2019-02-21T17:42:41.605Z,4.15
2019-02-21T17:45:10.388Z,4.10
2019-02-21T17:47:38.618Z,4.33
2019-02-21T17:50:11.054Z,3.70
2019-02-21T17:52:39.514Z,4.08
2019-02-21T17:55:09.579Z,4.55
2019-02-21T17:57:38.065Z,4.25
2019-02-21T18:00:09.650Z,4.78
2019-02-21T18:02:37.866Z,4.87
2019-02-21T18:05:07.849Z,5.05
2019-02-21T18:07:36.806Z,5.00
2019-02-21T18:10:11.036Z,5.10
2019-02-21T18:12:39.256Z,5.03
2019-02-21T18:15:09.735Z,5.33
2019-02-21T18:17:37.960Z,5.80
2019-02-21T18:20:09.053Z,5.85
2019-02-21T18:25:10.560Z,5.33
2019-02-21T18:27:39.041Z,5.90
2019-02-21T18:30:13.735Z,5.45
2019-02-21T18:32:41.960Z,5.45
2019-02-21T18:35:10.877Z,5.95
2019-02-21T18:37:47.045Z,5.30
2019-02-21T18:40:17.267Z,5.10
2019-02-21T18:42:42.729Z,5.42
2019-02-21T18:45:11.036Z,5.42
2019-02-21T18:47:39.275Z,5.90
2019-02-21T18:50:10.386Z,5.85
2019-02-21T18:55:07.324Z,5.83
2019-02-21T18:57:35.549Z,6.75
2019-02-21T19:00:06.390Z,6.42
2019-02-21T19:02:34.613Z,6.65
2019-02-21T19:05:03.155Z,7.42
2019-02-21T19:07:31.363Z,6.85
2019-02-21T19:09:59.588Z,7.70
2019-02-21T19:12:27.824Z,6.58
2019-02-21T19:14:56.051Z,6.67
2019-02-21T19:17:24.372Z,7.28
2019-02-21T19:19:52.643Z,7.12
2019-02-21T19:22:21.000Z,7.20
2019-02-21T19:24:49.557Z,6.55
2019-02-21T19:27:17.884Z,6.67
2019-02-21T19:29:46.104Z,7.30
2019-02-21T19:32:14.465Z,6.22
2019-02-21T19:34:42.685Z,6.55
2019-02-21T19:37:10.929Z,6.80
2019-02-21T19:39:39.172Z,6.87
2019-02-21T19:42:07.396Z,6.87
2019-02-21T19:44:35.663Z,6.97
2019-02-21T19:47:03.915Z,6.85
2019-02-21T19:49:32.128Z,6.92
2019-02-21T19:52:00.464Z,7.22
2019-02-21T19:54:28.697Z,7.15
2019-02-21T19:56:56.935Z,6.90
2019-02-21T19:59:25.158Z,7.15
2019-02-21T20:01:53.576Z,6.80
2019-02-21T20:04:21.800Z,8.33
2019-02-21T20:06:50.040Z,9.05
2019-02-21T20:09:18.736Z,8.80
2019-02-21T20:11:46.995Z,8.63
2019-02-21T20:14:15.216Z,8.98
2019-02-21T20:16:45.811Z,9.00
2019-02-21T20:19:13.512Z,9.68
2019-02-21T20:21:41.779Z,9.68
2019-02-21T20:24:09.988Z,9.70
2019-02-21T20:26:38.223Z,9.28
2019-02-21T20:29:06.449Z,9.50
2019-02-21T20:31:34.807Z,9.23
2019-02-21T20:34:03.440Z,9.63
2019-02-21T20:36:31.998Z,8.98
2019-02-21T20:39:00.230Z,9.90
2019-02-21T20:41:28.480Z,9.60
2019-02-21T20:43:56.704Z,9.53
2019-02-21T20:46:24.950Z,10.18
2019-02-21T20:48:53.176Z,10.00
2019-02-21T20:51:21.433Z,9.90
2019-02-21T20:53:49.650Z,9.80
2019-02-21T20:56:17.900Z,9.45
2019-02-21T20:58:46.132Z,9.68
2019-02-21T21:01:14.536Z,9.53
2019-02-21T21:03:42.763Z,9.13
2019-02-21T21:06:11.073Z,9.30
2019-02-21T21:08:43.456Z,9.20
2019-02-21T21:11:09.348Z,9.15
2019-02-21T21:13:37.600Z,8.65
2019-02-21T21:16:05.826Z,9.23
2019-02-21T21:18:34.072Z,9.73
2019-02-21T21:21:02.469Z,9.15
2019-02-21T21:23:30.985Z,9.30
2019-02-21T21:25:59.517Z,9.88
2019-02-21T21:28:27.757Z,9.10
2019-02-21T21:30:56.016Z,9.20
2019-02-21T21:33:24.268Z,9.53
2019-02-21T21:35:52.486Z,9.33
2019-02-21T21:38:24.255Z,10.00
2019-02-21T21:40:50.681Z,9.58
2019-02-21T21:43:18.916Z,9.43
2019-02-21T21:45:47.464Z,9.28
2019-02-21T21:48:15.706Z,9.48
2019-02-21T21:50:43.927Z,9.63
2019-02-21T21:53:12.190Z,8.40
2019-02-21T21:55:40.410Z,8.95
2019-02-21T21:58:08.640Z,9.35
2019-02-21T22:00:36.877Z,9.18
2019-02-21T22:03:05.388Z,8.70
2019-02-21T22:05:33.620Z,8.70
2019-02-21T22:08:01.876Z,9.28
2019-02-21T22:10:30.108Z,8.90
2019-02-21T22:12:58.328Z,8.88
2019-02-21T22:15:26.561Z,8.90
2019-02-21T22:17:55.021Z,9.40
2019-02-21T22:20:23.261Z,8.78
2019-02-21T22:22:51.491Z,8.73
2019-02-21T22:25:19.720Z,8.38
2019-02-21T22:27:47.961Z,8.90
2019-02-21T22:30:18.479Z,8.73
2019-02-21T22:32:46.713Z,8.78
2019-02-21T22:35:14.936Z,9.15
2019-02-21T22:37:43.164Z,8.18
2019-02-21T22:40:16.404Z,8.63
2019-02-21T22:42:44.638Z,9.15
2019-02-21T22:45:12.862Z,9.60
2019-02-21T22:47:41.120Z,10.00
2019-02-21T22:50:19.306Z,10.40
2019-02-21T22:52:47.538Z,9.98
2019-02-21T22:55:15.763Z,10.43
2019-02-21T22:57:44.348Z,10.53
2019-02-21T23:00:32.536Z,11.10
2019-02-21T23:03:01.481Z,9.70
2019-02-21T23:05:54.394Z,9.68
2019-02-21T23:08:28.380Z,10.98
2019-02-21T23:10:56.604Z,10.88
2019-02-21T23:13:25.072Z,10.48
2019-02-21T23:15:53.568Z,10.70
2019-02-21T23:18:22.164Z,10.58
2019-02-21T23:20:50.396Z,11.10
2019-02-21T23:23:18.636Z,11.43
2019-02-21T23:25:46.862Z,11.65
2019-02-21T23:28:15.102Z,11.40
2019-02-21T23:30:43.324Z,11.20
2019-02-21T23:33:11.900Z,11.15
2019-02-21T23:35:40.123Z,11.22
2019-02-21T23:38:08.375Z,11.08
2019-02-21T23:40:37.169Z,10.80
2019-02-21T23:43:05.518Z,11.25
2019-02-21T23:45:33.740Z,10.90
2019-02-21T23:48:02.244Z,11.18
2019-02-21T23:50:30.493Z,11.20
2019-02-21T23:52:59.037Z,10.82
2019-02-21T23:55:27.368Z,11.20
2019-02-21T23:57:55.603Z,11.55
